Vinson, Oklahoma
Current Conditions -  °F | °C
As of 4:35 PM on Tuesday 21 Oct 2014 (Local Time) from KAXS Reporting Station
Clear Clear  
Wind Chill: 83°   Ceiling: Unl
Heat Index: 83°   Visibility: 10mi
Dew Point: 50°   Wind: 8mph
Humidity: 32%   Direction: 170°S
Pressure: 30.03"   Gusts: NA
Location:  34.9°N, 99.86°W
Report Text: KAXS 212135Z AUTO 17007KT 10SM CLR 28/10 A3003 RMK AO2 T02820100
Loading
Personal Weather Stations






























Interactive Weather Map
Tropical Storm Tracking
New forecast layout! Learn more

10-Day Weather Forecast

Advertisements
Track Severe Weather on mobile